• Join FlightAware (Why Join?)
  • Login
  • US Flag 
12:04AM EDT


 

Airport Tracker/Info


-or-


 

Live Flight TrackerFlight Track Log ✈ N244A ✈ 06-Sep-2013 ✈ KLUK - KPWK

Flight Track Log - Related Links

Times and Time Zones

All times are in EDT time to prevent confusion due to time zone crossing. See the N244A flight status page for this flight to view local times or setup timezone preferences in your user account.

Time Position Orientation Groundspeed Altitude Reporting Facility
EDT Latitude Longitude Course Direction KTS MPH feet Rate Location/Type
01:08PM 39.1167 -84.4000 72° East 192 221 1,300  Level Cincinnati TRACON
01:09PM 39.1333 -84.3333 72° East 247 284 3,600 2,460 Climbing Cincinnati TRACON
01:10PM 39.1014 -84.3014 142° Southeast 241 277 5,200 2,880 Climbing Indianapolis Center
01:11PM 39.0256 -84.2872 172° South 273 314 8,500 2,820 Climbing Indianapolis Center
01:12PM 38.9672 -84.3483 219° Southwest 297 342 11,100 2,340 Climbing Indianapolis Center
01:13PM 38.9747 -84.4678 275° West 331 381 13,400 2,220 Climbing Indianapolis Center
01:14PM 39.0058 -84.5944 288° West 365 420 15,700 2,340 Climbing Indianapolis Center
01:15PM 39.0533 -84.7536 291° West 394 453 18,300 2,580 Climbing Indianapolis Center
01:16PM 39.0856 -84.8914 287° West 399 459 21,100 2,220 Climbing Indianapolis Center
01:17PM 39.1194 -85.0286 288° West 402 463 23,000 1,740 Climbing Indianapolis Center
01:18PM 39.1575 -85.1714 289° West 416 479 24,700 1,440 Climbing Indianapolis Center
01:19PM 39.1914 -85.3178 287° West 424 488 26,000 600 Climbing Indianapolis Center
01:20PM 39.2489 -85.4642 297° West 455 524 26,000  Level Indianapolis Center
01:21PM 39.3506 -85.6211 310° West 474 545 26,000  Level Indianapolis Center
01:22PM 39.4364 -85.7547 310° West 482 555 26,000  Level Indianapolis Center
01:23PM 39.5228 -85.8931 309° West 492 566 26,000  Level Indianapolis Center
01:24PM 39.6086 -86.0283 309° West 490 564 26,000  Level Indianapolis Center
01:25PM 39.6933 -86.1653 309° West 490 564 26,000  Level Indianapolis Center
01:26PM 39.7794 -86.3042 309° West 490 564 26,000  Level Indianapolis Center
01:27PM 39.8875 -86.4336 317° Northwest 478 550 26,000 -360 Level Indianapolis Center
01:28PM 39.9944 -86.5322 325° Northwest 473 544 25,300 -1,020 Descending Indianapolis Center
01:29PM 40.1017 -86.6322 325° Northwest 474 545 24,000 -780 Descending Indianapolis Center
01:30PM 40.2064 -86.7347 323° Northwest 471 542 23,900 -780 Descending Chicago Center
01:31PM 40.3100 -86.8283 325° Northwest 460 529 22,500 -1,800 Descending Chicago Center
01:32PM 40.4308 -86.8739 344° North 455 524 20,200 -2,100 Descending Chicago Center
01:33PM 40.5469 -86.9086 347° North 430 495 18,200 -1,980 Descending Chicago Center
01:34PM 40.6653 -86.9850 334° Northwest 395 455 16,200 -1,800 Descending Chicago Center
01:35PM 40.7569 -87.0600 328° Northwest 395 455 14,500 -1,680 Descending Chicago Center
01:36PM 40.8511 -87.1308 330° Northwest 392 451 12,800 -1,620 Descending Chicago Center
01:37PM 40.9469 -87.1808 338° Northwest 368 423 11,200 -1,680 Descending Chicago Center
01:38PM 41.0578 -87.1942 355° North 330 380 9,300 -2,040 Descending Chicago Center
01:39PM 41.1347 -87.2075 353° North 285 328 7,000 -2,280 Descending Chicago Center
01:40PM 41.2083 -87.2219 352° North 274 315 4,700 -1,500 Descending Chicago Center
01:42PM 41.2825 -87.2322 354° North 271 312 4,000 -360 Descending Chicago Center
01:43PM 41.3583 -87.2458 352° North 273 314 4,000  Level Chicago Center
01:44PM 41.4489 -87.2664 350° North 276 318 4,000  Level Chicago Center
01:45PM 41.5239 -87.2761 354° North 275 316 4,000  Level Chicago Center
01:46PM 41.5944 -87.3081 341° North 272 313 4,000  Level Chicago Center
01:47PM 41.6656 -87.3381 343° North 272 313 4,000 -300 Level Chicago Center
01:48PM 41.7542 -87.3692 345° North 273 314 3,400 -480 Descending Chicago Center
01:49PM 41.8272 -87.3994 343° North 275 316 3,000 -240 Descending Chicago Center
01:50PM 41.8989 -87.4314 342° North 275 316 3,000  Level Chicago Center
01:51PM 41.9731 -87.4578 345° North 277 319 3,000  Level Chicago Center
01:52PM 42.0469 -87.4864 344° North 277 319 3,000 -60 Level Chicago Center
01:53PM 42.1228 -87.5458 330° Northwest 273 314 2,900  Descending Chicago Center
01:54PM 42.1658 -87.6317 304° West 278 320 3,000  Climbing Chicago Center
01:55PM 42.2086 -87.7142 305° West 274 315 3,000 -60 Level Chicago Center
01:56PM 42.2531 -87.7928 307° West 269 310 2,900 -300 Descending Chicago Center
01:57PM 42.2714 -87.8864 285° West 260 299 2,500 -240 Descending Chicago Center
01:58PM 42.2525 -87.9853 256° West 267 307 2,500 -60 Level Chicago Center
01:59PM 42.1997 -87.9433 150° Southeast 247 284 2,400 -600 Descending Chicago Center
02:00PM 42.1542 -87.9250 163° South 224 258 1,300 -780 Descending Chicago Center
02:01PM 42.1094 -87.8997 157° South 199 229 800 -540 Descending Chicago Center